Time;durP1;ratioP1;P1;durP2;ratioP2;P2;SDS_P1;SDS_P2;PMS_P1;PMS_P2;Temp;Humidity;BMP_temperature;BMP_pressure;BME280_temperature;BME280_humidity;BME280_pressure;Samples;Min_cycle;Max_cycle;Signal;HPM_P1;HPM_P2
2022/06/25 00:01:14;;;;;;;17.55;15.02;;;17.70;99.90;;;;;;4964606;28;20133;-91
2022/06/25 00:03:40;;;;;;;18.83;15.43;;;17.30;99.90;;;;;;4986004;28;20042;-92
2022/06/25 00:06:06;;;;;;;17.92;16.08;;;17.30;99.90;;;;;;4978222;28;20047;-90
2022/06/25 00:08:34;;;;;;;18.95;16.95;;;17.30;99.90;;;;;;4965171;28;20046;-91
2022/06/25 00:10:59;;;;;;;19.35;17.17;;;17.20;99.90;;;;;;4980741;28;20082;-89
2022/06/25 00:13:25;;;;;;;18.38;15.75;;;17.30;99.90;;;;;;4968822;28;20081;-92
2022/06/25 00:15:56;;;;;;;17.52;15.65;;;17.20;99.90;;;;;;4967524;28;20090;-92
2022/06/25 00:18:25;;;;;;;20.40;18.30;;;17.40;99.90;;;;;;4986140;28;20544;-92
2022/06/25 00:20:51;;;;;;;18.23;16.35;;;17.20;99.90;;;;;;4970958;28;20046;-91
2022/06/25 00:23:17;;;;;;;19.63;17.55;;;17.20;99.90;;;;;;4968553;28;20046;-90
2022/06/25 00:25:42;;;;;;;20.63;18.52;;;17.20;99.90;;;;;;4968797;28;20051;-90
2022/06/25 00:28:08;;;;;;;21.17;17.50;;;17.40;99.90;;;;;;4964964;28;20505;-90
2022/06/25 00:30:34;;;;;;;18.60;16.63;;;17.10;99.90;;;;;;4988459;28;20074;-94
2022/06/25 00:33:00;;;;;;;21.90;19.23;;;17.20;99.90;;;;;;4960044;28;20051;-93
2022/06/25 00:35:26;;;;;;;19.70;17.60;;;17.20;99.90;;;;;;4980576;28;20064;-93
2022/06/25 00:37:52;;;;;;;18.30;16.40;;;17.10;99.90;;;;;;4963830;28;20046;-91
2022/06/25 00:40:18;;;;;;;23.02;17.88;;;17.00;99.90;;;;;;4985142;28;20506;-90
2022/06/25 00:42:45;;;;;;;21.33;18.45;;;17.10;99.90;;;;;;4979633;28;20050;-91
2022/06/25 00:45:11;;;;;;;21.85;18.58;;;17.20;99.90;;;;;;4964909;28;20042;-91
2022/06/25 00:47:37;;;;;;;19.30;16.63;;;17.00;99.90;;;;;;4974734;28;20736;-90
2022/06/25 00:50:03;;;;;;;19.15;17.15;;;17.00;99.90;;;;;;4977509;28;20144;-91
2022/06/25 00:52:33;;;;;;;18.58;16.27;;;17.00;99.90;;;;;;4981093;28;20046;-90
2022/06/25 00:55:05;;;;;;;18.55;15.68;;;17.00;99.90;;;;;;4965301;28;20089;-89
2022/06/25 00:57:33;;;;;;;17.33;15.52;;;17.00;99.90;;;;;;4966075;28;20588;-92
2022/06/25 01:00:04;;;;;;;17.77;15.43;;;17.00;99.90;;;;;;4966042;28;20062;-90
2022/06/25 01:02:30;;;;;;;18.35;15.75;;;17.10;99.90;;;;;;4982166;28;20062;-91
2022/06/25 01:04:56;;;;;;;16.50;14.65;;;17.20;99.90;;;;;;4962879;28;20129;-90
2022/06/25 01:07:22;;;;;;;18.25;15.10;;;17.30;99.90;;;;;;4965402;28;20541;-90
2022/06/25 01:09:51;;;;;;;17.98;14.65;;;17.00;99.90;;;;;;4965174;28;20149;-90
2022/06/25 01:12:17;;;;;;;17.35;14.70;;;17.00;99.90;;;;;;4982221;28;20088;-91
2022/06/25 01:14:43;;;;;;;15.32;13.63;;;17.00;99.90;;;;;;4966453;28;20536;-90
2022/06/25 01:17:09;;;;;;;15.70;14.00;;;17.10;99.90;;;;;;4958433;28;20076;-91
2022/06/25 01:19:36;;;;;;;15.07;13.48;;;16.90;99.90;;;;;;4980564;28;20035;-90
2022/06/25 01:22:03;;;;;;;16.30;14.63;;;16.90;99.90;;;;;;4961544;28;20047;-90
2022/06/25 01:24:29;;;;;;;14.35;12.85;;;16.90;99.90;;;;;;4965402;28;20054;-89
2022/06/25 01:26:55;;;;;;;16.70;13.70;;;16.90;99.90;;;;;;4965720;28;20048;-90
2022/06/25 01:29:21;;;;;;;16.70;13.80;;;16.80;99.90;;;;;;4975029;28;20125;-90
2022/06/25 01:31:46;;;;;;;16.90;13.23;;;16.80;99.90;;;;;;4981426;28;20042;-89
2022/06/25 01:34:12;;;;;;;14.27;12.77;;;16.80;99.90;;;;;;4977663;28;20113;-90
2022/06/25 01:36:37;;;;;;;17.10;14.60;;;16.80;99.90;;;;;;4971757;28;20537;-89
2022/06/25 01:39:03;;;;;;;15.98;13.32;;;16.80;99.90;;;;;;4978920;28;20074;-90
2022/06/25 01:41:29;;;;;;;17.73;13.70;;;16.80;99.90;;;;;;4977981;28;20058;-89
2022/06/25 01:43:55;;;;;;;14.93;13.32;;;16.70;99.90;;;;;;4961797;28;20157;-89
2022/06/25 01:46:21;;;;;;;17.23;14.13;;;16.80;99.90;;;;;;4976309;28;20141;-89
2022/06/25 01:48:48;;;;;;;15.48;13.82;;;16.80;99.90;;;;;;4960091;28;20050;-88
2022/06/25 01:51:17;;;;;;;15.65;14.02;;;16.70;99.90;;;;;;4962007;28;20042;-89
2022/06/25 01:53:44;;;;;;;16.33;12.88;;;16.70;99.90;;;;;;4978397;28;20059;-89
2022/06/25 01:56:09;;;;;;;16.35;14.63;;;16.70;99.90;;;;;;4964445;28;20042;-89
2022/06/25 01:58:35;;;;;;;16.70;14.23;;;16.70;99.90;;;;;;4965255;28;20073;-89
2022/06/25 02:01:05;;;;;;;16.52;14.27;;;16.70;99.90;;;;;;4962910;28;20052;-88
2022/06/25 02:03:31;;;;;;;16.85;13.45;;;16.60;99.90;;;;;;4965565;28;20050;-89
2022/06/25 02:05:57;;;;;;;17.05;14.18;;;16.60;99.90;;;;;;4989571;23;20524;-87
2022/06/25 02:08:24;;;;;;;18.30;15.35;;;16.70;99.90;;;;;;4961002;28;20196;-88
2022/06/25 02:10:51;;;;;;;16.77;14.63;;;16.60;99.90;;;;;;4964439;28;20046;-88
2022/06/25 02:13:17;;;;;;;16.67;13.82;;;16.60;99.90;;;;;;4982013;28;20137;-88
2022/06/25 02:15:42;;;;;;;15.70;13.65;;;16.60;99.90;;;;;;4961302;28;20141;-88
2022/06/25 02:18:10;;;;;;;20.30;15.07;;;16.60;99.90;;;;;;4950539;28;20098;-87
2022/06/25 02:20:36;;;;;;;16.88;15.07;;;16.80;99.90;;;;;;4958866;28;20510;-88
2022/06/25 02:23:03;;;;;;;15.88;14.13;;;16.50;99.90;;;;;;4970169;28;20802;-90
2022/06/25 02:25:28;;;;;;;19.75;14.63;;;16.50;99.90;;;;;;4975180;28;20084;-87
2022/06/25 02:27:54;;;;;;;15.82;14.13;;;16.50;99.90;;;;;;4948159;28;20082;-88
2022/06/25 02:30:20;;;;;;;17.00;12.77;;;16.40;99.90;;;;;;4966684;28;20050;-88
2022/06/25 02:32:46;;;;;;;15.00;13.13;;;16.50;99.90;;;;;;4961455;28;20078;-87
2022/06/25 02:35:11;;;;;;;15.15;13.55;;;16.50;99.90;;;;;;4964933;28;20046;-89
2022/06/25 02:37:37;;;;;;;14.75;13.02;;;16.50;99.90;;;;;;4984150;28;20490;-89
2022/06/25 02:40:04;;;;;;;12.73;11.43;;;16.60;99.90;;;;;;4969012;28;20038;-88
2022/06/25 02:42:35;;;;;;;14.05;12.50;;;16.40;99.90;;;;;;4968811;23;20050;-88
2022/06/25 02:45:02;;;;;;;16.13;13.88;;;16.40;99.90;;;;;;4983540;28;20042;-87
2022/06/25 02:47:28;;;;;;;16.27;12.77;;;16.40;99.90;;;;;;4963708;28;20054;-88
2022/06/25 02:49:53;;;;;;;15.95;13.25;;;16.30;99.90;;;;;;4966387;28;20053;-88
2022/06/25 02:52:19;;;;;;;15.63;12.68;;;16.30;99.90;;;;;;4966567;28;20066;-88
2022/06/25 02:54:45;;;;;;;15.38;13.00;;;16.30;99.90;;;;;;4982586;28;20045;-88
2022/06/25 02:59:55;;;;;;;14.32;12.73;;;16.30;99.90;;;;;;4969381;28;20050;-87
2022/06/25 03:02:20;;;;;;;13.90;12.32;;;16.30;99.90;;;;;;4981850;28;20686;-88
2022/06/25 03:04:46;;;;;;;16.80;13.13;;;16.30;99.90;;;;;;4964937;28;20054;-88
2022/06/25 03:07:11;;;;;;;14.38;12.60;;;16.30;99.90;;;;;;4966120;28;20046;-88
2022/06/25 03:09:37;;;;;;;14.15;11.95;;;16.30;99.90;;;;;;4981987;28;20116;-88
2022/06/25 03:12:03;;;;;;;14.27;12.77;;;16.70;99.90;;;;;;4962933;28;20051;-87
2022/06/25 03:14:31;;;;;;;15.35;12.25;;;16.30;99.90;;;;;;4974501;28;20096;-89
2022/06/25 03:16:56;;;;;;;14.45;12.40;;;16.30;99.90;;;;;;4965061;28;20384;-88
2022/06/25 03:19:22;;;;;;;14.82;12.68;;;16.30;99.90;;;;;;4963871;28;20061;-88
2022/06/25 03:21:48;;;;;;;17.55;13.15;;;16.20;99.90;;;;;;4951484;28;20134;-87
2022/06/25 03:24:14;;;;;;;16.63;14.02;;;16.60;99.90;;;;;;4979657;28;20376;-87
2022/06/25 03:26:39;;;;;;;14.93;13.02;;;16.30;99.90;;;;;;4959842;28;20074;-87
2022/06/25 03:29:05;;;;;;;14.95;13.45;;;16.20;99.90;;;;;;4975604;28;20092;-88
2022/06/25 03:31:31;;;;;;;15.93;13.77;;;16.30;99.90;;;;;;4959936;28;20046;-88
2022/06/25 03:33:57;;;;;;;17.10;14.63;;;16.20;99.90;;;;;;4958686;28;20093;-88
2022/06/25 03:36:22;;;;;;;15.30;13.80;;;16.20;99.90;;;;;;4975920;28;20541;-86
2022/06/25 03:38:48;;;;;;;15.30;13.02;;;16.20;99.90;;;;;;4983268;28;20770;-88
2022/06/25 03:41:32;;;;;;;15.75;12.63;;;16.20;99.90;;;;;;4965592;28;20089;-88
2022/06/25 03:43:59;;;;;;;18.05;14.85;;;16.20;99.90;;;;;;4950494;28;20062;-88
2022/06/25 03:46:25;;;;;;;16.55;14.50;;;16.20;99.90;;;;;;4948332;28;20685;-88
2022/06/25 03:48:51;;;;;;;18.80;14.75;;;16.20;99.90;;;;;;4968286;28;20051;-86
2022/06/25 03:51:17;;;;;;;17.05;15.23;;;16.20;99.90;;;;;;4964917;28;20054;-87
2022/06/25 03:53:43;;;;;;;17.50;13.57;;;16.20;99.90;;;;;;4978574;28;20042;-87
2022/06/25 03:56:10;;;;;;;15.43;13.80;;;16.60;99.90;;;;;;4982609;28;20050;-88
2022/06/25 03:58:36;;;;;;;14.25;12.75;;;16.20;99.90;;;;;;4983314;28;20060;-88
2022/06/25 04:01:01;;;;;;;16.33;14.55;;;16.40;99.90;;;;;;4959447;28;20680;-86
2022/06/25 04:03:29;;;;;;;18.20;15.15;;;16.60;99.90;;;;;;4973273;28;21019;-87
2022/06/25 04:05:54;;;;;;;15.40;13.75;;;16.20;99.90;;;;;;4951342;28;20050;-86
2022/06/25 04:08:20;;;;;;;18.17;15.18;;;16.20;99.90;;;;;;4967510;28;20057;-87
2022/06/25 04:10:46;;;;;;;17.70;15.73;;;16.40;99.90;;;;;;4982835;28;20113;-88
2022/06/25 04:13:11;;;;;;;18.02;15.18;;;16.70;99.90;;;;;;4965269;28;20061;-88
2022/06/25 04:15:39;;;;;;;20.13;16.02;;;16.30;99.90;;;;;;4984211;28;20575;-87
2022/06/25 04:18:06;;;;;;;17.60;15.75;;;16.30;99.90;;;;;;4963924;28;20061;-88
2022/06/25 04:20:32;;;;;;;16.98;15.18;;;16.30;99.90;;;;;;4954064;28;20708;-88
2022/06/25 04:22:58;;;;;;;17.65;15.02;;;16.40;99.90;;;;;;4963934;28;20054;-87
2022/06/25 04:25:24;;;;;;;15.80;14.07;;;16.30;99.90;;;;;;4977274;28;20045;-87
2022/06/25 04:30:33;;;;;;;16.98;14.35;;;16.30;99.90;;;;;;4964776;28;20056;-87
2022/06/25 04:32:59;;;;;;;17.00;14.50;;;16.30;99.90;;;;;;4975348;28;20054;-88
2022/06/25 04:35:25;;;;;;;21.10;15.00;;;16.40;99.90;;;;;;4981943;28;20046;-87
2022/06/25 04:37:51;;;;;;;16.70;14.07;;;16.40;99.90;;;;;;4964357;28;20054;-86
2022/06/25 04:40:17;;;;;;;16.15;14.50;;;16.40;99.90;;;;;;4946116;28;20070;-87
2022/06/25 04:42:46;;;;;;;17.98;15.60;;;16.40;99.90;;;;;;4981903;28;20054;-87
2022/06/25 04:45:12;;;;;;;17.38;15.40;;;16.40;99.90;;;;;;4964905;28;20142;-87
2022/06/25 04:47:38;;;;;;;17.92;15.20;;;16.70;99.90;;;;;;4963789;28;20057;-87
2022/06/25 04:50:05;;;;;;;17.20;15.35;;;16.40;99.90;;;;;;4980902;28;20047;-86
2022/06/25 04:52:31;;;;;;;15.75;14.02;;;16.40;99.90;;;;;;4963280;28;20145;-87
2022/06/25 04:54:59;;;;;;;18.48;15.43;;;16.40;99.90;;;;;;4979358;28;20846;-87
2022/06/25 04:57:25;;;;;;;18.35;14.13;;;16.40;99.90;;;;;;4964298;28;20052;-86
2022/06/25 04:59:51;;;;;;;17.58;14.73;;;16.80;99.90;;;;;;4963731;28;20054;-86
2022/06/25 05:02:16;;;;;;;19.40;13.10;;;16.50;99.90;;;;;;4979377;28;20046;-87
2022/06/25 05:04:42;;;;;;;17.00;14.65;;;16.80;99.90;;;;;;4960237;28;20046;-87
2022/06/25 05:07:08;;;;;;;15.73;12.88;;;16.50;99.90;;;;;;4979705;28;20056;-87
2022/06/25 05:09:33;;;;;;;15.93;13.95;;;16.50;99.90;;;;;;4981949;28;20482;-87
2022/06/25 05:11:59;;;;;;;15.32;13.68;;;16.60;99.90;;;;;;4963234;28;20046;-86
2022/06/25 05:14:25;;;;;;;16.58;13.13;;;17.00;99.90;;;;;;4982243;28;20169;-87
2022/06/25 05:16:51;;;;;;;17.35;12.55;;;16.60;99.90;;;;;;4948624;28;20046;-86
2022/06/25 05:19:16;;;;;;;15.02;13.25;;;16.60;99.90;;;;;;4961967;28;20059;-86
2022/06/25 05:21:42;;;;;;;14.95;12.73;;;16.70;99.90;;;;;;4964967;28;20149;-85
2022/06/25 05:24:09;;;;;;;13.68;12.35;;;16.80;99.90;;;;;;4964257;28;20431;-86
2022/06/25 05:26:35;;;;;;;15.18;13.05;;;16.70;99.90;;;;;;4985883;28;20042;-86
2022/06/25 05:29:00;;;;;;;15.70;12.93;;;16.80;99.90;;;;;;4966676;28;20050;-86
2022/06/25 05:31:26;;;;;;;14.50;12.68;;;17.20;99.90;;;;;;4982950;28;20039;-86
2022/06/25 05:33:51;;;;;;;16.85;12.43;;;16.80;99.90;;;;;;4962088;28;20046;-86
2022/06/25 05:36:18;;;;;;;15.93;12.20;;;16.80;99.90;;;;;;4984736;28;20093;-86
2022/06/25 05:38:44;;;;;;;13.52;11.85;;;16.80;99.90;;;;;;4984163;28;20619;-86
2022/06/25 05:41:11;;;;;;;14.38;12.23;;;16.90;99.90;;;;;;4982620;28;20042;-85
2022/06/25 05:43:38;;;;;;;13.63;12.00;;;16.90;99.90;;;;;;4948108;28;20157;-86
2022/06/25 05:46:05;;;;;;;12.80;11.27;;;17.00;99.90;;;;;;4964955;28;20042;-86
2022/06/25 05:48:31;;;;;;;13.85;12.05;;;17.00;99.90;;;;;;4966432;28;20057;-86
2022/06/25 05:50:57;;;;;;;13.63;11.38;;;17.10;99.90;;;;;;4983990;28;20046;-87
2022/06/25 05:53:23;;;;;;;15.63;12.00;;;17.10;99.90;;;;;;4965120;28;20058;-86
2022/06/25 05:55:49;;;;;;;14.40;11.02;;;17.20;99.90;;;;;;4986634;28;20101;-87
2022/06/25 05:58:15;;;;;;;13.15;11.00;;;17.20;99.90;;;;;;4964686;28;20651;-87
2022/06/25 06:00:40;;;;;;;12.40;10.40;;;17.30;99.90;;;;;;4974768;28;20069;-87
2022/06/25 06:03:06;;;;;;;13.23;10.65;;;17.30;99.90;;;;;;4964666;28;20043;-86
2022/06/25 06:05:32;;;;;;;12.13;9.88;;;17.60;99.90;;;;;;4964454;28;20047;-86
2022/06/25 06:07:58;;;;;;;11.77;9.82;;;17.40;99.90;;;;;;4978023;28;20516;-86
2022/06/25 06:10:24;;;;;;;10.52;9.23;;;17.40;99.90;;;;;;4968448;28;20050;-86
2022/06/25 06:12:49;;;;;;;11.13;9.93;;;17.50;99.90;;;;;;4975558;28;20084;-86
2022/06/25 06:15:15;;;;;;;14.60;9.63;;;17.60;99.90;;;;;;4984314;28;20780;-86
2022/06/25 06:17:41;;;;;;;12.15;9.18;;;17.60;99.90;;;;;;4961524;28;20046;-86
2022/06/25 06:20:07;;;;;;;12.13;10.20;;;17.70;99.90;;;;;;4966620;28;20067;-87
2022/06/25 06:22:33;;;;;;;13.35;9.68;;;17.80;99.90;;;;;;4971460;28;20082;-87
2022/06/25 06:24:58;;;;;;;14.27;9.38;;;17.90;99.90;;;;;;4980471;28;20094;-86
2022/06/25 06:27:24;;;;;;;11.60;9.10;;;17.90;99.90;;;;;;4964525;28;20086;-87
2022/06/25 06:29:50;;;;;;;11.85;9.15;;;18.00;99.90;;;;;;4982497;28;20105;-86
2022/06/25 06:32:15;;;;;;;11.52;8.65;;;18.10;99.90;;;;;;4964009;28;20105;-86
2022/06/25 06:34:42;;;;;;;9.80;8.13;;;18.20;99.90;;;;;;4971334;28;20050;-87
2022/06/25 06:37:07;;;;;;;10.13;8.35;;;18.20;99.90;;;;;;4956657;28;20058;-87
2022/06/25 06:39:33;;;;;;;9.88;7.70;;;18.50;99.90;;;;;;4958853;28;20748;-80
2022/06/25 06:41:59;;;;;;;11.35;8.10;;;18.40;99.90;;;;;;4962165;28;20137;-85
2022/06/25 06:44:24;;;;;;;12.68;7.38;;;18.50;99.90;;;;;;4980837;28;20047;-87
2022/06/25 06:46:50;;;;;;;9.23;7.30;;;18.60;99.90;;;;;;4982177;28;20064;-85
2022/06/25 06:49:15;;;;;;;8.48;6.60;;;18.60;99.90;;;;;;4963434;28;20092;-85
2022/06/25 06:51:41;;;;;;;10.30;6.75;;;18.60;99.90;;;;;;4962842;28;20042;-85
2022/06/25 06:54:07;;;;;;;10.02;6.82;;;18.70;99.90;;;;;;4968637;28;20474;-84
2022/06/25 06:56:32;;;;;;;9.35;5.85;;;18.80;99.90;;;;;;4953258;28;20100;-84
2022/06/25 06:58:59;;;;;;;10.48;6.57;;;18.90;99.90;;;;;;4979710;28;20054;-84
2022/06/25 07:01:25;;;;;;;8.80;5.95;;;19.10;99.90;;;;;;4964127;28;20053;-84
2022/06/25 07:03:51;;;;;;;12.07;6.22;;;19.10;99.90;;;;;;4950010;28;20059;-85
2022/06/25 07:06:16;;;;;;;8.25;5.75;;;19.10;99.90;;;;;;4966996;28;20050;-84
2022/06/25 07:08:42;;;;;;;9.02;5.07;;;19.30;99.90;;;;;;4974627;28;20112;-85
2022/06/25 07:11:28;;;;;;;9.93;5.25;;;19.50;99.90;;;;;;4973076;28;20415;-84
2022/06/25 07:13:54;;;;;;;10.40;5.05;;;19.80;99.90;;;;;;4954871;28;20423;-85
2022/06/25 07:16:21;;;;;;;13.25;4.95;;;20.20;99.90;;;;;;4978035;28;20104;-84
2022/06/25 07:18:46;;;;;;;8.55;4.20;;;20.40;99.90;;;;;;4973805;28;20179;-85
2022/06/25 07:21:12;;;;;;;6.82;3.97;;;20.70;99.90;;;;;;4959953;28;20046;-83
2022/06/25 07:23:38;;;;;;;5.53;3.22;;;20.90;99.90;;;;;;4981203;28;20076;-89
2022/06/25 07:26:03;;;;;;;8.63;3.90;;;21.20;99.90;;;;;;4959142;28;20158;-88
2022/06/25 07:28:29;;;;;;;7.35;3.58;;;21.40;99.90;;;;;;4976167;28;20048;-90
2022/06/25 07:30:54;;;;;;;6.10;3.13;;;21.70;99.90;;;;;;4954805;28;20819;-89
2022/06/25 07:33:20;;;;;;;7.18;2.88;;;21.80;99.90;;;;;;4957006;28;20104;-88
2022/06/25 07:35:46;;;;;;;6.47;3.20;;;21.90;99.90;;;;;;4957156;28;20117;-87
2022/06/25 07:38:11;;;;;;;6.90;3.22;;;22.00;99.90;;;;;;4953025;28;20053;-90
2022/06/25 07:40:37;;;;;;;5.97;3.00;;;22.20;99.90;;;;;;4953319;28;20757;-87
2022/06/25 07:43:02;;;;;;;6.10;2.25;;;22.30;99.90;;;;;;4979229;28;20137;-89
2022/06/25 07:45:28;;;;;;;7.28;2.67;;;22.70;99.90;;;;;;4969121;28;20086;-88
2022/06/25 07:47:53;;;;;;;7.13;2.72;;;22.60;99.90;;;;;;4957687;28;20046;-86
2022/06/25 07:53:04;;;;;;;;;;;23.00;99.90;;;;;;4974897;28;20055;-83
2022/06/25 07:55:29;;;;;;;4.75;2.50;;;23.10;99.90;;;;;;4976606;28;19925;-83
2022/06/25 07:57:55;;;;;;;7.32;2.20;;;23.20;99.90;;;;;;4960040;28;20046;-83
2022/06/25 08:00:22;;;;;;;4.60;1.60;;;23.20;99.90;;;;;;4977423;28;20046;-87
2022/06/25 08:02:48;;;;;;;4.95;2.13;;;23.20;99.90;;;;;;4957904;28;20536;-85
2022/06/25 08:05:14;;;;;;;7.78;2.38;;;23.00;99.90;;;;;;4960108;28;20383;-88
2022/06/25 08:07:40;;;;;;;7.47;2.05;;;23.00;99.90;;;;;;4961762;28;20038;-89
2022/06/25 08:10:07;;;;;;;4.68;2.20;;;23.00;99.90;;;;;;4975760;28;20745;-88
2022/06/25 08:12:32;;;;;;;4.95;2.22;;;23.10;99.90;;;;;;4955546;28;20138;-90
2022/06/25 08:14:59;;;;;;;5.97;2.35;;;23.10;99.90;;;;;;4961557;28;20054;-87
2022/06/25 08:17:25;;;;;;;4.60;2.13;;;23.10;99.90;;;;;;4962929;28;20112;-85
2022/06/25 08:19:51;;;;;;;4.80;1.88;;;23.10;99.90;;;;;;4971065;28;20848;-83
2022/06/25 08:22:16;;;;;;;4.95;1.70;;;23.20;99.90;;;;;;4972922;28;20049;-83
2022/06/25 08:24:42;;;;;;;6.65;1.45;;;23.20;99.90;;;;;;4980039;28;20042;-85
2022/06/25 08:27:10;;;;;;;5.43;1.90;;;23.20;99.90;;;;;;4961789;28;20100;-84
2022/06/25 08:29:36;;;;;;;4.95;2.00;;;23.10;99.90;;;;;;4976675;28;20517;-84
2022/06/25 08:32:02;;;;;;;7.18;1.90;;;23.00;99.90;;;;;;4960293;28;20057;-84
2022/06/25 08:34:28;;;;;;;5.60;2.00;;;22.90;99.90;;;;;;4958343;28;20384;-84
2022/06/25 08:36:54;;;;;;;7.07;2.20;;;22.70;99.90;;;;;;4967827;28;20054;-84
2022/06/25 08:39:19;;;;;;;6.47;2.15;;;22.80;99.90;;;;;;4943058;28;20127;-83
2022/06/25 08:41:45;;;;;;;4.55;2.08;;;22.90;99.90;;;;;;4922162;28;1099760;-83
2022/06/25 08:44:11;;;;;;;4.97;1.75;;;23.10;99.90;;;;;;4943573;28;20832;-83
2022/06/25 08:46:37;;;;;;;8.30;2.10;;;23.30;99.90;;;;;;4961902;28;20210;-83
2022/06/25 08:49:04;;;;;;;3.95;1.75;;;23.50;99.90;;;;;;4960533;28;20093;-84
2022/06/25 08:51:32;;;;;;;6.05;1.50;;;23.60;99.90;;;;;;4953624;28;20058;-84
2022/06/25 08:53:58;;;;;;;5.57;1.60;;;23.80;99.90;;;;;;4962763;28;20141;-84
2022/06/25 08:56:24;;;;;;;5.65;1.50;;;23.80;99.90;;;;;;4980043;28;20085;-84
2022/06/25 08:58:49;;;;;;;5.65;1.83;;;23.50;99.90;;;;;;4967002;28;20149;-83
2022/06/25 09:01:15;;;;;;;5.25;1.75;;;23.30;99.90;;;;;;4961142;28;20039;-83
2022/06/25 09:03:42;;;;;;;5.40;2.10;;;23.30;99.90;;;;;;4972810;28;20049;-84
2022/06/25 09:06:13;;;;;;;5.25;2.00;;;23.20;99.90;;;;;;4979838;28;20264;-84
2022/06/25 09:08:40;;;;;;;4.68;1.80;;;23.20;99.90;;;;;;4964852;28;20932;-84
2022/06/25 09:11:05;;;;;;;6.60;1.75;;;23.30;99.90;;;;;;4960312;28;20713;-84
2022/06/25 09:13:31;;;;;;;6.50;1.88;;;23.30;99.90;;;;;;4959819;28;20066;-84
2022/06/25 09:15:57;;;;;;;3.40;1.40;;;23.40;99.90;;;;;;4959672;28;20061;-84
2022/06/25 09:18:22;;;;;;;5.85;1.73;;;23.30;99.90;;;;;;4943570;28;20049;-84
2022/06/25 09:20:58;;;;;;;5.72;1.58;;;23.10;99.90;;;;;;4952082;28;20054;-83
2022/06/25 09:23:28;;;;;;;4.15;1.70;;;23.10;99.90;;;;;;4959120;28;20132;-83
2022/06/25 09:26:05;;;;;;;2.92;1.00;;;23.00;99.90;;;;;;4942729;28;20132;-83
2022/06/25 09:28:40;;;;;;;5.38;1.45;;;23.00;99.90;;;;;;4961299;28;20058;-83
2022/06/25 09:31:07;;;;;;;5.53;1.17;;;23.10;99.90;;;;;;4942327;28;20058;-83
2022/06/25 09:33:35;;;;;;;5.10;1.15;;;23.20;99.90;;;;;;4951464;28;20390;-83
2022/06/25 09:36:01;;;;;;;3.75;1.30;;;23.40;99.90;;;;;;4973090;28;20557;-83
2022/06/25 09:38:27;;;;;;;4.38;1.58;;;23.50;99.90;;;;;;4979451;28;20054;-83
2022/06/25 09:40:58;;;;;;;2.72;1.10;;;23.70;99.90;;;;;;4977586;28;20109;-83
2022/06/25 09:43:25;;;;;;;4.68;1.08;;;23.80;99.90;;;;;;4944516;28;20388;-84
2022/06/25 09:45:56;;;;;;;3.42;1.20;;;23.90;99.90;;;;;;4959967;28;20062;-83
2022/06/25 09:48:23;;;;;;;3.25;1.20;;;23.90;99.90;;;;;;4979099;28;20053;-83
2022/06/25 09:51:11;;;;;;;5.25;1.17;;;23.90;99.90;;;;;;4966109;28;20561;-83
2022/06/25 09:53:50;;;;;;;4.55;1.10;;;23.90;99.90;;;;;;4943068;28;20054;-84
2022/06/25 09:56:26;;;;;;;2.42;1.02;;;24.00;99.90;;;;;;4942656;28;20074;-84
2022/06/25 09:58:53;;;;;;;6.13;1.27;;;24.10;99.90;;;;;;4959581;28;20590;-85
2022/06/25 10:01:24;;;;;;;4.28;1.60;;;24.10;99.90;;;;;;4942356;28;20149;-84
2022/06/25 10:03:50;;;;;;;3.50;1.58;;;24.20;99.90;;;;;;4958403;28;20058;-84
2022/06/25 10:06:19;;;;;;;4.38;1.63;;;24.20;99.90;;;;;;4960767;28;20109;-84
2022/06/25 10:08:52;;;;;;;6.82;1.02;;;24.30;99.90;;;;;;4942720;28;20050;-84
2022/06/25 10:11:20;;;;;;;4.50;1.30;;;24.30;99.90;;;;;;4959834;28;20653;-84
2022/06/25 10:13:48;;;;;;;2.92;1.10;;;24.30;99.90;;;;;;4959699;28;20055;-84
2022/06/25 10:16:18;;;;;;;2.42;1.10;;;24.30;99.90;;;;;;4960021;28;20096;-84
2022/06/25 10:18:44;;;;;;;3.70;1.38;;;24.20;99.90;;;;;;4960342;28;20069;-83
2022/06/25 10:21:12;;;;;;;4.38;1.38;;;24.10;99.90;;;;;;4961129;28;20085;-84
2022/06/25 10:23:41;;;;;;;4.80;1.27;;;24.10;99.90;;;;;;4943136;28;20058;-84
2022/06/25 10:26:09;;;;;;;6.15;1.00;;;24.20;99.90;;;;;;4941600;28;20043;-84
2022/06/25 10:28:37;;;;;;;2.10;0.90;;;24.40;99.90;;;;;;4941961;28;20145;-85
2022/06/25 10:31:10;;;;;;;5.45;1.10;;;24.40;99.90;;;;;;4960582;28;20050;-85
2022/06/25 10:33:51;;;;;;;4.35;1.10;;;24.60;99.90;;;;;;4957425;28;20050;-84
2022/06/25 10:36:17;;;;;;;3.78;1.20;;;24.60;99.90;;;;;;4942659;28;20770;-85
2022/06/25 10:38:43;;;;;;;4.40;1.50;;;24.60;99.90;;;;;;4960397;28;20050;-85
2022/06/25 10:43:57;;;;;;;5.03;1.20;;;24.90;99.90;;;;;;4960742;28;20050;-84
2022/06/25 10:46:36;;;;;;;3.30;1.00;;;25.00;99.90;;;;;;4953299;28;20829;-85
2022/06/25 10:49:19;;;;;;;4.40;1.10;;;25.20;99.90;;;;;;4969940;28;20038;-85
2022/06/25 10:51:47;;;;;;;2.90;0.90;;;25.30;99.90;;;;;;4963408;28;20121;-86
2022/06/25 10:54:22;;;;;;;5.05;1.35;;;25.20;99.90;;;;;;4959116;28;20093;-85
2022/06/25 10:56:49;;;;;;;2.88;1.10;;;24.90;99.90;;;;;;4947958;28;20058;-85
2022/06/25 10:59:34;;;;;;;3.10;1.00;;;24.80;99.90;;;;;;4963469;28;20047;-86
2022/06/25 11:02:05;;;;;;;2.72;1.13;;;24.60;99.90;;;;;;4944417;28;20051;-85
2022/06/25 11:04:32;;;;;;;3.33;1.00;;;24.50;99.90;;;;;;4947878;28;20470;-85
2022/06/25 11:07:17;;;;;;;5.82;1.00;;;24.40;99.90;;;;;;4962586;28;20083;-85
2022/06/25 11:10:00;;;;;;;5.50;1.17;;;24.60;99.90;;;;;;4945389;28;20058;-85
2022/06/25 11:12:28;;;;;;;2.80;1.00;;;24.80;99.90;;;;;;4945270;28;20093;-86
2022/06/25 11:15:06;;;;;;;4.55;1.10;;;24.90;99.90;;;;;;4955430;28;20539;-85
2022/06/25 11:17:32;;;;;;;6.45;1.48;;;24.90;99.90;;;;;;4977341;28;20050;-86
2022/06/25 11:20:09;;;;;;;3.15;1.15;;;24.80;99.90;;;;;;4977142;28;20049;-85
2022/06/25 11:22:49;;;;;;;5.10;1.20;;;24.70;99.90;;;;;;4981478;28;20160;-86
2022/06/25 11:31:05;;;;;;;5.65;1.30;;;24.90;99.90;;;;;;4867893;29;20068;-86
2022/06/25 11:33:31;;;;;;;4.20;1.30;;;24.80;99.90;;;;;;4868423;29;20045;-86
2022/06/25 11:36:07;;;;;;;4.85;1.13;;;24.70;99.90;;;;;;4919958;28;20098;-87
2022/06/25 11:38:33;;;;;;;3.92;1.00;;;24.70;99.90;;;;;;4944729;28;20137;-85
2022/06/25 11:40:58;;;;;;;3.45;1.40;;;24.60;99.90;;;;;;4944828;28;20599;-85
2022/06/25 11:43:27;;;;;;;4.47;1.13;;;24.70;99.90;;;;;;4980315;28;20872;-86
2022/06/25 11:45:55;;;;;;;3.17;1.00;;;24.60;99.90;;;;;;4980086;28;20823;-85
2022/06/25 11:48:33;;;;;;;2.85;1.00;;;24.60;99.90;;;;;;4960301;28;20108;-85
2022/06/25 11:51:02;;;;;;;2.83;1.10;;;24.70;99.90;;;;;;4962712;28;20505;-85
2022/06/25 11:53:28;;;;;;;4.55;0.90;;;24.80;99.90;;;;;;4980719;28;20050;-85
2022/06/25 11:56:02;;;;;;;1.85;0.93;;;25.00;99.90;;;;;;4952663;28;20054;-85
2022/06/25 11:58:33;;;;;;;2.92;0.80;;;25.30;99.90;;;;;;4972591;28;20146;-86
2022/06/25 12:01:01;;;;;;;2.75;0.90;;;25.50;99.90;;;;;;4978857;28;20569;-83
2022/06/25 12:03:29;;;;;;;3.50;0.70;;;25.60;99.90;;;;;;4956189;28;20046;-86
2022/06/25 12:05:56;;;;;;;3.75;1.00;;;25.60;99.90;;;;;;4975113;28;20077;-92
2022/06/25 12:08:23;;;;;;;2.58;1.05;;;25.50;99.90;;;;;;4976641;28;20042;-84
2022/06/25 12:10:49;;;;;;;4.05;0.82;;;25.40;99.90;;;;;;4957583;28;20101;-86
2022/06/25 12:13:15;;;;;;;4.97;1.02;;;25.40;99.90;;;;;;4961316;28;20042;-84
2022/06/25 12:15:41;;;;;;;6.32;1.17;;;25.30;99.90;;;;;;4961691;28;20046;-83
2022/06/25 12:18:07;;;;;;;6.03;1.02;;;25.30;99.90;;;;;;4943423;28;20053;-84
2022/06/25 12:20:33;;;;;;;4.55;0.95;;;25.20;99.90;;;;;;4961499;28;20138;-85
2022/06/25 12:23:00;;;;;;;2.50;0.80;;;25.20;99.90;;;;;;4957694;28;20051;-84
2022/06/25 12:25:31;;;;;;;4.95;0.90;;;25.20;99.90;;;;;;4944689;28;20474;-84
2022/06/25 12:27:58;;;;;;;4.53;1.73;;;25.10;99.90;;;;;;4943854;28;20042;-86
2022/06/25 12:30:29;;;;;;;2.28;0.95;;;25.00;99.90;;;;;;4957673;28;20101;-86
2022/06/25 12:33:02;;;;;;;4.15;1.15;;;24.90;99.90;;;;;;4961291;28;20694;-82
2022/06/25 12:35:30;;;;;;;2.78;1.08;;;24.80;99.90;;;;;;4980408;28;20065;-85
2022/06/25 12:38:07;;;;;;;3.22;1.00;;;24.70;99.90;;;;;;4955226;28;20058;-83
2022/06/25 12:40:51;;;;;;;5.00;1.23;;;24.60;99.90;;;;;;4943196;28;20753;-83
2022/06/25 12:43:18;;;;;;;2.70;1.10;;;24.50;99.90;;;;;;4977023;28;20486;-82
2022/06/25 12:45:49;;;;;;;2.63;0.85;;;24.40;99.90;;;;;;4979989;28;20089;-82
2022/06/25 12:48:44;;;;;;;2.38;0.95;;;24.30;99.90;;;;;;4972548;28;20046;-82
2022/06/25 12:51:12;;;;;;;3.83;1.48;;;24.20;99.90;;;;;;4946172;28;20065;-83
2022/06/25 12:53:39;;;;;;;4.55;1.20;;;24.20;99.90;;;;;;4947656;28;20112;-81